sensor_id;sensor_type;location;lat;lon;timestamp;temperature;humidity
63537;DHT22;49686;51.880;5.632;2022-11-11T00:00:03;6.30;99.90
63537;DHT22;49686;51.880;5.632;2022-11-11T00:02:30;6.30;99.90
63537;DHT22;49686;51.880;5.632;2022-11-11T00:04:57;6.40;99.90
63537;DHT22;49686;51.880;5.632;2022-11-11T00:07:23;6.30;99.90
63537;DHT22;49686;51.880;5.632;2022-11-11T00:09:50;6.40;99.90
63537;DHT22;49686;51.880;5.632;2022-11-11T00:12:17;6.40;99.90
63537;DHT22;49686;51.880;5.632;2022-11-11T00:14:46;6.60;99.90
63537;DHT22;49686;51.880;5.632;2022-11-11T00:17:13;6.80;99.90
63537;DHT22;49686;51.880;5.632;2022-11-11T00:19:40;6.80;99.90
63537;DHT22;49686;51.880;5.632;2022-11-11T00:22:14;6.90;99.90
63537;DHT22;49686;51.880;5.632;2022-11-11T00:24:45;7.00;99.90
63537;DHT22;49686;51.880;5.632;2022-11-11T00:27:12;7.00;99.90
63537;DHT22;49686;51.880;5.632;2022-11-11T00:29:40;7.10;99.90
63537;DHT22;49686;51.880;5.632;2022-11-11T00:32:08;7.10;99.90
63537;DHT22;49686;51.880;5.632;2022-11-11T00:34:35;7.10;99.90
63537;DHT22;49686;51.880;5.632;2022-11-11T00:37:02;7.10;99.90
63537;DHT22;49686;51.880;5.632;2022-11-11T00:39:29;7.20;99.90
63537;DHT22;49686;51.880;5.632;2022-11-11T00:41:55;7.10;99.90
63537;DHT22;49686;51.880;5.632;2022-11-11T00:44:22;7.20;99.90
63537;DHT22;49686;51.880;5.632;2022-11-11T00:46:49;7.20;99.90
63537;DHT22;49686;51.880;5.632;2022-11-11T00:49:17;7.20;99.90
63537;DHT22;49686;51.880;5.632;2022-11-11T00:51:44;7.20;99.90
63537;DHT22;49686;51.880;5.632;2022-11-11T00:54:11;7.20;99.90
63537;DHT22;49686;51.880;5.632;2022-11-11T00:56:38;7.20;99.90
63537;DHT22;49686;51.880;5.632;2022-11-11T00:59:06;7.20;99.90
63537;DHT22;49686;51.880;5.632;2022-11-11T01:01:34;7.20;99.90
63537;DHT22;49686;51.880;5.632;2022-11-11T01:04:02;7.20;99.90
63537;DHT22;49686;51.880;5.632;2022-11-11T01:06:30;7.20;99.90
63537;DHT22;49686;51.880;5.632;2022-11-11T01:08:57;7.30;99.90
63537;DHT22;49686;51.880;5.632;2022-11-11T01:11:24;7.30;99.90
63537;DHT22;49686;51.880;5.632;2022-11-11T01:13:51;7.20;99.90
63537;DHT22;49686;51.880;5.632;2022-11-11T01:16:19;7.30;99.90
63537;DHT22;49686;51.880;5.632;2022-11-11T01:18:46;7.30;99.90
63537;DHT22;49686;51.880;5.632;2022-11-11T01:21:15;7.30;99.90
63537;DHT22;49686;51.880;5.632;2022-11-11T01:23:44;7.30;99.90
63537;DHT22;49686;51.880;5.632;2022-11-11T01:26:14;7.30;99.90
63537;DHT22;49686;51.880;5.632;2022-11-11T01:28:41;7.30;99.90
63537;DHT22;49686;51.880;5.632;2022-11-11T01:31:10;7.30;99.90
63537;DHT22;49686;51.880;5.632;2022-11-11T01:33:38;7.30;99.90
63537;DHT22;49686;51.880;5.632;2022-11-11T01:36:07;7.30;99.90
63537;DHT22;49686;51.880;5.632;2022-11-11T01:38:35;7.30;99.90
63537;DHT22;49686;51.880;5.632;2022-11-11T01:41:04;7.40;99.90
63537;DHT22;49686;51.880;5.632;2022-11-11T01:43:31;7.40;99.90
63537;DHT22;49686;51.880;5.632;2022-11-11T01:45:59;7.40;99.90
63537;DHT22;49686;51.880;5.632;2022-11-11T01:48:30;7.40;99.90
63537;DHT22;49686;51.880;5.632;2022-11-11T01:51:00;7.50;99.90
63537;DHT22;49686;51.880;5.632;2022-11-11T01:53:28;7.50;99.90
63537;DHT22;49686;51.880;5.632;2022-11-11T01:55:56;7.50;99.90
63537;DHT22;49686;51.880;5.632;2022-11-11T01:58:25;7.50;99.90
63537;DHT22;49686;51.880;5.632;2022-11-11T02:00:53;7.50;99.90
63537;DHT22;49686;51.880;5.632;2022-11-11T02:03:20;7.50;99.90
63537;DHT22;49686;51.880;5.632;2022-11-11T02:05:50;7.50;99.90
63537;DHT22;49686;51.880;5.632;2022-11-11T02:08:20;7.50;99.90
63537;DHT22;49686;51.880;5.632;2022-11-11T02:10:48;7.60;99.90
63537;DHT22;49686;51.880;5.632;2022-11-11T02:13:15;7.60;99.90
63537;DHT22;49686;51.880;5.632;2022-11-11T02:15:44;7.60;99.90
63537;DHT22;49686;51.880;5.632;2022-11-11T02:18:11;7.60;99.90
63537;DHT22;49686;51.880;5.632;2022-11-11T02:20:41;7.60;99.90
63537;DHT22;49686;51.880;5.632;2022-11-11T02:23:11;7.60;99.90
63537;DHT22;49686;51.880;5.632;2022-11-11T02:25:44;7.60;99.90
63537;DHT22;49686;51.880;5.632;2022-11-11T02:28:12;7.60;99.90
63537;DHT22;49686;51.880;5.632;2022-11-11T02:30:40;7.60;99.90
63537;DHT22;49686;51.880;5.632;2022-11-11T02:33:07;7.60;99.90
63537;DHT22;49686;51.880;5.632;2022-11-11T02:35:36;7.60;99.90
63537;DHT22;49686;51.880;5.632;2022-11-11T02:38:04;7.60;99.90
63537;DHT22;49686;51.880;5.632;2022-11-11T02:40:35;7.60;99.90
63537;DHT22;49686;51.880;5.632;2022-11-11T02:43:04;7.50;99.90
63537;DHT22;49686;51.880;5.632;2022-11-11T02:45:31;7.60;99.90
63537;DHT22;49686;51.880;5.632;2022-11-11T02:47:58;7.70;99.90
63537;DHT22;49686;51.880;5.632;2022-11-11T02:50:25;7.60;99.90
63537;DHT22;49686;51.880;5.632;2022-11-11T02:52:51;7.60;99.90
63537;DHT22;49686;51.880;5.632;2022-11-11T02:55:18;7.60;99.90
63537;DHT22;49686;51.880;5.632;2022-11-11T02:57:45;7.60;99.90
63537;DHT22;49686;51.880;5.632;2022-11-11T03:00:15;7.60;99.90
63537;DHT22;49686;51.880;5.632;2022-11-11T03:02:42;7.60;99.90
63537;DHT22;49686;51.880;5.632;2022-11-11T03:05:09;7.60;99.90
63537;DHT22;49686;51.880;5.632;2022-11-11T03:07:36;7.60;99.90
63537;DHT22;49686;51.880;5.632;2022-11-11T03:10:03;7.60;99.90
63537;DHT22;49686;51.880;5.632;2022-11-11T03:12:30;7.60;99.90
63537;DHT22;49686;51.880;5.632;2022-11-11T03:14:57;7.50;99.90
63537;DHT22;49686;51.880;5.632;2022-11-11T03:17:25;7.50;99.90
63537;DHT22;49686;51.880;5.632;2022-11-11T03:19:52;7.50;99.90
63537;DHT22;49686;51.880;5.632;2022-11-11T03:22:19;7.50;99.90
63537;DHT22;49686;51.880;5.632;2022-11-11T03:25:06;7.50;99.90
63537;DHT22;49686;51.880;5.632;2022-11-11T03:27:33;7.50;99.90
63537;DHT22;49686;51.880;5.632;2022-11-11T03:30:00;7.40;99.90
63537;DHT22;49686;51.880;5.632;2022-11-11T03:32:28;7.40;99.90
63537;DHT22;49686;51.880;5.632;2022-11-11T03:34:54;7.30;99.90
63537;DHT22;49686;51.880;5.632;2022-11-11T03:37:21;7.30;99.90
63537;DHT22;49686;51.880;5.632;2022-11-11T03:39:48;7.30;99.90
63537;DHT22;49686;51.880;5.632;2022-11-11T03:42:15;7.30;99.90
63537;DHT22;49686;51.880;5.632;2022-11-11T03:44:41;7.30;99.90
63537;DHT22;49686;51.880;5.632;2022-11-11T03:47:08;7.30;99.90
63537;DHT22;49686;51.880;5.632;2022-11-11T03:49:36;7.40;99.90
63537;DHT22;49686;51.880;5.632;2022-11-11T03:52:04;7.40;99.90
63537;DHT22;49686;51.880;5.632;2022-11-11T03:54:30;7.40;99.90
63537;DHT22;49686;51.880;5.632;2022-11-11T03:56:57;7.40;99.90
63537;DHT22;49686;51.880;5.632;2022-11-11T03:59:24;7.40;99.90
63537;DHT22;49686;51.880;5.632;2022-11-11T04:01:51;7.30;99.90
63537;DHT22;49686;51.880;5.632;2022-11-11T04:04:17;7.30;99.90
63537;DHT22;49686;51.880;5.632;2022-11-11T04:06:45;7.30;99.90
63537;DHT22;49686;51.880;5.632;2022-11-11T04:09:12;7.40;99.90
63537;DHT22;49686;51.880;5.632;2022-11-11T04:11:40;7.30;99.90
63537;DHT22;49686;51.880;5.632;2022-11-11T04:14:09;7.40;99.90
63537;DHT22;49686;51.880;5.632;2022-11-11T04:16:36;7.30;99.90
63537;DHT22;49686;51.880;5.632;2022-11-11T04:19:03;7.30;99.90
63537;DHT22;49686;51.880;5.632;2022-11-11T04:21:29;7.40;99.90
63537;DHT22;49686;51.880;5.632;2022-11-11T04:23:57;7.40;99.90
63537;DHT22;49686;51.880;5.632;2022-11-11T04:26:24;7.40;99.90
63537;DHT22;49686;51.880;5.632;2022-11-11T04:28:51;7.40;99.90
63537;DHT22;49686;51.880;5.632;2022-11-11T04:31:18;7.40;99.90
63537;DHT22;49686;51.880;5.632;2022-11-11T04:33:45;7.30;99.90
63537;DHT22;49686;51.880;5.632;2022-11-11T04:36:11;7.30;99.90
63537;DHT22;49686;51.880;5.632;2022-11-11T04:38:38;7.30;99.90
63537;DHT22;49686;51.880;5.632;2022-11-11T04:41:06;7.30;99.90
63537;DHT22;49686;51.880;5.632;2022-11-11T04:43:33;7.20;99.90
63537;DHT22;49686;51.880;5.632;2022-11-11T04:46:00;7.20;99.90
63537;DHT22;49686;51.880;5.632;2022-11-11T04:48:27;7.20;99.90
63537;DHT22;49686;51.880;5.632;2022-11-11T04:50:53;7.20;99.90
63537;DHT22;49686;51.880;5.632;2022-11-11T04:53:20;7.20;99.90
63537;DHT22;49686;51.880;5.632;2022-11-11T04:55:47;7.10;99.90
63537;DHT22;49686;51.880;5.632;2022-11-11T04:58:17;7.10;99.90
63537;DHT22;49686;51.880;5.632;2022-11-11T05:00:44;7.10;99.90
63537;DHT22;49686;51.880;5.632;2022-11-11T05:03:12;7.20;99.90
63537;DHT22;49686;51.880;5.632;2022-11-11T05:05:39;7.10;99.90
63537;DHT22;49686;51.880;5.632;2022-11-11T05:08:07;7.10;99.90
63537;DHT22;49686;51.880;5.632;2022-11-11T05:10:34;7.10;99.90
63537;DHT22;49686;51.880;5.632;2022-11-11T05:13:01;7.10;99.90
63537;DHT22;49686;51.880;5.632;2022-11-11T05:15:29;7.00;99.90
63537;DHT22;49686;51.880;5.632;2022-11-11T05:17:56;7.10;99.90
63537;DHT22;49686;51.880;5.632;2022-11-11T05:20:22;7.10;99.90
63537;DHT22;49686;51.880;5.632;2022-11-11T05:22:49;7.10;99.90
63537;DHT22;49686;51.880;5.632;2022-11-11T05:25:16;7.10;99.90
63537;DHT22;49686;51.880;5.632;2022-11-11T05:27:43;7.10;99.90
63537;DHT22;49686;51.880;5.632;2022-11-11T05:30:11;7.00;99.90
63537;DHT22;49686;51.880;5.632;2022-11-11T05:32:40;7.10;99.90
63537;DHT22;49686;51.880;5.632;2022-11-11T05:35:08;7.00;99.90
63537;DHT22;49686;51.880;5.632;2022-11-11T05:37:35;7.00;99.90
63537;DHT22;49686;51.880;5.632;2022-11-11T05:40:02;7.00;99.90
63537;DHT22;49686;51.880;5.632;2022-11-11T05:42:29;7.00;99.90
63537;DHT22;49686;51.880;5.632;2022-11-11T05:44:56;6.90;99.90
63537;DHT22;49686;51.880;5.632;2022-11-11T05:47:23;7.00;99.90
63537;DHT22;49686;51.880;5.632;2022-11-11T05:49:51;7.00;99.90
63537;DHT22;49686;51.880;5.632;2022-11-11T05:52:18;7.00;99.90
63537;DHT22;49686;51.880;5.632;2022-11-11T05:54:45;6.90;99.90
63537;DHT22;49686;51.880;5.632;2022-11-11T05:57:12;6.90;99.90
63537;DHT22;49686;51.880;5.632;2022-11-11T05:59:39;6.80;99.90
63537;DHT22;49686;51.880;5.632;2022-11-11T06:02:05;6.70;99.90
63537;DHT22;49686;51.880;5.632;2022-11-11T06:04:32;6.70;99.90
63537;DHT22;49686;51.880;5.632;2022-11-11T06:07:00;6.70;99.90
63537;DHT22;49686;51.880;5.632;2022-11-11T06:09:27;6.70;99.90
63537;DHT22;49686;51.880;5.632;2022-11-11T06:11:54;6.70;99.90
63537;DHT22;49686;51.880;5.632;2022-11-11T06:14:21;6.60;99.90
63537;DHT22;49686;51.880;5.632;2022-11-11T06:16:47;6.70;99.90
63537;DHT22;49686;51.880;5.632;2022-11-11T06:19:14;6.70;99.90
63537;DHT22;49686;51.880;5.632;2022-11-11T06:21:41;6.60;99.90
63537;DHT22;49686;51.880;5.632;2022-11-11T06:24:09;6.60;99.90
63537;DHT22;49686;51.880;5.632;2022-11-11T06:26:35;6.50;99.90
63537;DHT22;49686;51.880;5.632;2022-11-11T06:29:02;6.50;99.90
63537;DHT22;49686;51.880;5.632;2022-11-11T06:31:29;6.50;99.90
63537;DHT22;49686;51.880;5.632;2022-11-11T06:33:55;6.50;99.90
63537;DHT22;49686;51.880;5.632;2022-11-11T06:36:22;6.40;99.90
63537;DHT22;49686;51.880;5.632;2022-11-11T06:38:49;6.40;99.90
63537;DHT22;49686;51.880;5.632;2022-11-11T06:41:17;6.30;99.90
63537;DHT22;49686;51.880;5.632;2022-11-11T06:43:43;6.20;99.90
63537;DHT22;49686;51.880;5.632;2022-11-11T06:46:15;6.20;99.90
63537;DHT22;49686;51.880;5.632;2022-11-11T06:48:44;6.10;99.90
63537;DHT22;49686;51.880;5.632;2022-11-11T06:51:11;6.10;99.90
63537;DHT22;49686;51.880;5.632;2022-11-11T06:53:38;6.00;99.90
63537;DHT22;49686;51.880;5.632;2022-11-11T06:56:06;6.00;99.90
63537;DHT22;49686;51.880;5.632;2022-11-11T06:58:34;5.90;99.90
63537;DHT22;49686;51.880;5.632;2022-11-11T07:01:03;5.90;99.90
63537;DHT22;49686;51.880;5.632;2022-11-11T07:03:30;5.90;99.90
63537;DHT22;49686;51.880;5.632;2022-11-11T07:05:59;5.90;99.90
63537;DHT22;49686;51.880;5.632;2022-11-11T07:08:26;5.90;99.90
63537;DHT22;49686;51.880;5.632;2022-11-11T07:10:53;5.90;99.90
63537;DHT22;49686;51.880;5.632;2022-11-11T07:13:20;5.90;99.90
63537;DHT22;49686;51.880;5.632;2022-11-11T07:15:48;5.90;99.90
63537;DHT22;49686;51.880;5.632;2022-11-11T07:18:15;5.90;99.90
63537;DHT22;49686;51.880;5.632;2022-11-11T07:20:42;5.90;99.90
63537;DHT22;49686;51.880;5.632;2022-11-11T07:23:08;6.00;99.90
63537;DHT22;49686;51.880;5.632;2022-11-11T07:25:35;6.10;99.90
63537;DHT22;49686;51.880;5.632;2022-11-11T07:28:02;6.10;99.90
63537;DHT22;49686;51.880;5.632;2022-11-11T07:30:29;6.10;99.90
63537;DHT22;49686;51.880;5.632;2022-11-11T07:32:57;6.20;99.90
63537;DHT22;49686;51.880;5.632;2022-11-11T07:35:24;6.20;99.90
63537;DHT22;49686;51.880;5.632;2022-11-11T07:37:50;6.20;99.90
63537;DHT22;49686;51.880;5.632;2022-11-11T07:40:18;6.20;99.90
63537;DHT22;49686;51.880;5.632;2022-11-11T07:42:45;6.20;99.90
63537;DHT22;49686;51.880;5.632;2022-11-11T07:45:12;6.20;99.90
63537;DHT22;49686;51.880;5.632;2022-11-11T07:47:42;6.30;99.90
63537;DHT22;49686;51.880;5.632;2022-11-11T07:50:11;6.30;99.90
63537;DHT22;49686;51.880;5.632;2022-11-11T07:52:38;6.20;99.90
63537;DHT22;49686;51.880;5.632;2022-11-11T07:55:05;6.20;99.90
63537;DHT22;49686;51.880;5.632;2022-11-11T07:57:32;6.30;99.90
63537;DHT22;49686;51.880;5.632;2022-11-11T07:59:58;6.30;99.90
63537;DHT22;49686;51.880;5.632;2022-11-11T08:02:25;6.30;99.90
63537;DHT22;49686;51.880;5.632;2022-11-11T08:04:52;6.30;99.90
63537;DHT22;49686;51.880;5.632;2022-11-11T08:07:23;6.30;99.90
63537;DHT22;49686;51.880;5.632;2022-11-11T08:09:50;6.30;99.90
63537;DHT22;49686;51.880;5.632;2022-11-11T08:12:17;6.30;99.90
63537;DHT22;49686;51.880;5.632;2022-11-11T08:14:47;6.40;99.90
63537;DHT22;49686;51.880;5.632;2022-11-11T08:17:14;6.50;99.90
63537;DHT22;49686;51.880;5.632;2022-11-11T08:19:41;6.50;99.90
63537;DHT22;49686;51.880;5.632;2022-11-11T08:22:08;6.50;99.90
63537;DHT22;49686;51.880;5.632;2022-11-11T08:24:36;6.50;99.90
63537;DHT22;49686;51.880;5.632;2022-11-11T08:27:22;6.40;99.90
63537;DHT22;49686;51.880;5.632;2022-11-11T08:29:49;6.50;99.90
63537;DHT22;49686;51.880;5.632;2022-11-11T08:32:16;6.40;99.90
63537;DHT22;49686;51.880;5.632;2022-11-11T08:34:43;6.30;99.90
63537;DHT22;49686;51.880;5.632;2022-11-11T08:37:09;6.30;99.90
63537;DHT22;49686;51.880;5.632;2022-11-11T08:39:37;6.30;99.90
63537;DHT22;49686;51.880;5.632;2022-11-11T08:42:04;6.40;99.90
63537;DHT22;49686;51.880;5.632;2022-11-11T08:44:31;6.40;99.90
63537;DHT22;49686;51.880;5.632;2022-11-11T08:46:58;6.40;99.90
63537;DHT22;49686;51.880;5.632;2022-11-11T08:49:25;6.50;99.90
63537;DHT22;49686;51.880;5.632;2022-11-11T08:51:51;6.50;99.90
63537;DHT22;49686;51.880;5.632;2022-11-11T08:54:18;6.60;99.90
63537;DHT22;49686;51.880;5.632;2022-11-11T08:56:46;6.70;99.90
63537;DHT22;49686;51.880;5.632;2022-11-11T08:59:13;6.70;99.90
63537;DHT22;49686;51.880;5.632;2022-11-11T09:01:40;6.80;99.90
63537;DHT22;49686;51.880;5.632;2022-11-11T09:04:07;6.90;99.90
63537;DHT22;49686;51.880;5.632;2022-11-11T09:06:53;6.90;99.90
63537;DHT22;49686;51.880;5.632;2022-11-11T09:09:20;7.00;99.90
63537;DHT22;49686;51.880;5.632;2022-11-11T09:11:48;7.10;99.90
63537;DHT22;49686;51.880;5.632;2022-11-11T09:14:15;7.10;99.90
63537;DHT22;49686;51.880;5.632;2022-11-11T09:16:42;7.10;99.90
63537;DHT22;49686;51.880;5.632;2022-11-11T09:19:08;7.20;99.90
63537;DHT22;49686;51.880;5.632;2022-11-11T09:21:35;7.30;99.90
63537;DHT22;49686;51.880;5.632;2022-11-11T09:24:02;7.40;99.90
63537;DHT22;49686;51.880;5.632;2022-11-11T09:26:29;7.40;99.90
63537;DHT22;49686;51.880;5.632;2022-11-11T09:28:57;7.60;99.90
63537;DHT22;49686;51.880;5.632;2022-11-11T09:31:24;7.80;99.90
63537;DHT22;49686;51.880;5.632;2022-11-11T09:34:11;7.80;99.90
63537;DHT22;49686;51.880;5.632;2022-11-11T09:36:37;7.90;99.90
63537;DHT22;49686;51.880;5.632;2022-11-11T09:39:04;7.90;99.90
63537;DHT22;49686;51.880;5.632;2022-11-11T09:41:38;8.00;99.90
63537;DHT22;49686;51.880;5.632;2022-11-11T09:44:18;7.90;99.90
63537;DHT22;49686;51.880;5.632;2022-11-11T09:46:53;8.10;99.90
63537;DHT22;49686;51.880;5.632;2022-11-11T09:49:37;8.10;99.90
63537;DHT22;49686;51.880;5.632;2022-11-11T09:52:13;8.20;99.90
63537;DHT22;49686;51.880;5.632;2022-11-11T09:54:43;8.40;99.90
63537;DHT22;49686;51.880;5.632;2022-11-11T09:57:14;8.50;99.90
63537;DHT22;49686;51.880;5.632;2022-11-11T09:59:46;8.50;99.90
63537;DHT22;49686;51.880;5.632;2022-11-11T10:02:19;8.40;99.90
63537;DHT22;49686;51.880;5.632;2022-11-11T10:04:55;8.30;99.90
63537;DHT22;49686;51.880;5.632;2022-11-11T10:07:30;8.40;99.90
63537;DHT22;49686;51.880;5.632;2022-11-11T10:10:06;8.60;99.90
63537;DHT22;49686;51.880;5.632;2022-11-11T10:12:37;8.70;99.90
63537;DHT22;49686;51.880;5.632;2022-11-11T10:15:13;8.50;99.90
63537;DHT22;49686;51.880;5.632;2022-11-11T10:17:49;8.80;99.90
63537;DHT22;49686;51.880;5.632;2022-11-11T10:20:21;8.80;99.90
63537;DHT22;49686;51.880;5.632;2022-11-11T10:22:52;8.90;99.90
63537;DHT22;49686;51.880;5.632;2022-11-11T10:25:24;8.60;99.90
63537;DHT22;49686;51.880;5.632;2022-11-11T10:27:53;8.80;99.90
63537;DHT22;49686;51.880;5.632;2022-11-11T10:30:24;8.80;99.90
63537;DHT22;49686;51.880;5.632;2022-11-11T10:33:00;8.70;99.90
63537;DHT22;49686;51.880;5.632;2022-11-11T10:35:29;8.90;99.90
63537;DHT22;49686;51.880;5.632;2022-11-11T10:38:02;9.00;99.90
63537;DHT22;49686;51.880;5.632;2022-11-11T10:40:38;9.00;99.90
63537;DHT22;49686;51.880;5.632;2022-11-11T10:43:17;8.80;99.90
63537;DHT22;49686;51.880;5.632;2022-11-11T10:45:52;9.00;99.90
63537;DHT22;49686;51.880;5.632;2022-11-11T10:48:24;9.20;99.90
63537;DHT22;49686;51.880;5.632;2022-11-11T10:50:57;9.30;99.90
63537;DHT22;49686;51.880;5.632;2022-11-11T10:53:30;9.30;99.90
63537;DHT22;49686;51.880;5.632;2022-11-11T10:56:03;9.30;99.90
63537;DHT22;49686;51.880;5.632;2022-11-11T10:58:36;9.40;99.90
63537;DHT22;49686;51.880;5.632;2022-11-11T11:01:07;9.60;99.90
63537;DHT22;49686;51.880;5.632;2022-11-11T11:03:40;9.30;99.90
63537;DHT22;49686;51.880;5.632;2022-11-11T11:06:12;9.40;99.90
63537;DHT22;49686;51.880;5.632;2022-11-11T11:08:43;9.40;99.90
63537;DHT22;49686;51.880;5.632;2022-11-11T11:11:18;9.30;99.90
63537;DHT22;49686;51.880;5.632;2022-11-11T11:13:48;9.20;99.90
63537;DHT22;49686;51.880;5.632;2022-11-11T11:16:24;9.10;99.90
63537;DHT22;49686;51.880;5.632;2022-11-11T11:19:13;9.10;99.90
63537;DHT22;49686;51.880;5.632;2022-11-11T11:21:48;9.00;99.90
63537;DHT22;49686;51.880;5.632;2022-11-11T11:24:20;9.00;99.90
63537;DHT22;49686;51.880;5.632;2022-11-11T11:26:49;8.90;99.90
63537;DHT22;49686;51.880;5.632;2022-11-11T11:29:23;9.00;99.90
63537;DHT22;49686;51.880;5.632;2022-11-11T11:31:52;8.80;99.90
63537;DHT22;49686;51.880;5.632;2022-11-11T11:34:19;9.00;99.90
63537;DHT22;49686;51.880;5.632;2022-11-11T11:36:58;9.10;99.90
63537;DHT22;49686;51.880;5.632;2022-11-11T11:39:32;9.10;99.90
63537;DHT22;49686;51.880;5.632;2022-11-11T11:42:00;9.00;99.90
63537;DHT22;49686;51.880;5.632;2022-11-11T11:44:28;9.20;99.90
63537;DHT22;49686;51.880;5.632;2022-11-11T11:47:02;9.20;99.90
63537;DHT22;49686;51.880;5.632;2022-11-11T11:49:44;9.20;99.90
63537;DHT22;49686;51.880;5.632;2022-11-11T11:52:19;9.40;99.90
63537;DHT22;49686;51.880;5.632;2022-11-11T11:54:54;9.40;99.90
63537;DHT22;49686;51.880;5.632;2022-11-11T11:57:33;9.30;99.90
63537;DHT22;49686;51.880;5.632;2022-11-11T12:00:05;9.40;99.90
63537;DHT22;49686;51.880;5.632;2022-11-11T12:02:40;9.40;99.90
63537;DHT22;49686;51.880;5.632;2022-11-11T12:05:16;9.60;99.90
63537;DHT22;49686;51.880;5.632;2022-11-11T12:08:02;9.60;99.90
63537;DHT22;49686;51.880;5.632;2022-11-11T12:10:38;10.00;99.90
63537;DHT22;49686;51.880;5.632;2022-11-11T12:13:18;9.70;99.90
63537;DHT22;49686;51.880;5.632;2022-11-11T12:15:53;9.90;99.90
63537;DHT22;49686;51.880;5.632;2022-11-11T12:18:36;10.20;99.90
63537;DHT22;49686;51.880;5.632;2022-11-11T12:21:08;10.10;99.90
63537;DHT22;49686;51.880;5.632;2022-11-11T12:23:50;10.10;99.90
63537;DHT22;49686;51.880;5.632;2022-11-11T12:26:24;10.10;99.90
63537;DHT22;49686;51.880;5.632;2022-11-11T12:29:13;10.30;99.90
63537;DHT22;49686;51.880;5.632;2022-11-11T12:31:55;10.30;99.90
63537;DHT22;49686;51.880;5.632;2022-11-11T12:34:37;10.30;99.90
63537;DHT22;49686;51.880;5.632;2022-11-11T12:37:14;10.30;99.90
63537;DHT22;49686;51.880;5.632;2022-11-11T12:39:58;10.30;99.90
63537;DHT22;49686;51.880;5.632;2022-11-11T12:42:38;10.30;99.90
63537;DHT22;49686;51.880;5.632;2022-11-11T12:45:12;10.40;99.90
63537;DHT22;49686;51.880;5.632;2022-11-11T12:47:51;10.50;99.90
63537;DHT22;49686;51.880;5.632;2022-11-11T12:50:26;10.30;99.90
63537;DHT22;49686;51.880;5.632;2022-11-11T12:53:13;10.40;99.90
63537;DHT22;49686;51.880;5.632;2022-11-11T12:56:00;10.30;99.90
63537;DHT22;49686;51.880;5.632;2022-11-11T12:58:35;10.50;99.90
63537;DHT22;49686;51.880;5.632;2022-11-11T13:01:15;10.50;99.90
63537;DHT22;49686;51.880;5.632;2022-11-11T13:04:07;10.40;99.90
63537;DHT22;49686;51.880;5.632;2022-11-11T13:06:47;10.50;99.90
63537;DHT22;49686;51.880;5.632;2022-11-11T13:09:41;10.40;99.90
63537;DHT22;49686;51.880;5.632;2022-11-11T13:12:14;10.40;99.90
63537;DHT22;49686;51.880;5.632;2022-11-11T13:15:10;10.40;99.90
63537;DHT22;49686;51.880;5.632;2022-11-11T13:17:37;10.30;99.90
63537;DHT22;49686;51.880;5.632;2022-11-11T13:20:14;10.40;99.90
63537;DHT22;49686;51.880;5.632;2022-11-11T13:22:43;10.30;99.90
63537;DHT22;49686;51.880;5.632;2022-11-11T13:25:14;10.30;99.90
63537;DHT22;49686;51.880;5.632;2022-11-11T13:27:46;10.30;99.90
63537;DHT22;49686;51.880;5.632;2022-11-11T13:30:33;10.30;99.90
63537;DHT22;49686;51.880;5.632;2022-11-11T13:33:04;10.30;99.90
63537;DHT22;49686;51.880;5.632;2022-11-11T13:35:35;10.30;99.90
63537;DHT22;49686;51.880;5.632;2022-11-11T13:38:04;10.40;99.90
63537;DHT22;49686;51.880;5.632;2022-11-11T13:40:36;10.40;99.90
63537;DHT22;49686;51.880;5.632;2022-11-11T13:43:05;10.40;99.90
63537;DHT22;49686;51.880;5.632;2022-11-11T13:45:41;10.50;99.90
63537;DHT22;49686;51.880;5.632;2022-11-11T13:48:16;10.50;99.90
63537;DHT22;49686;51.880;5.632;2022-11-11T13:50:44;10.60;99.90
63537;DHT22;49686;51.880;5.632;2022-11-11T13:53:23;10.60;99.90
63537;DHT22;49686;51.880;5.632;2022-11-11T13:55:50;10.60;99.90
63537;DHT22;49686;51.880;5.632;2022-11-11T13:58:23;10.60;99.90
63537;DHT22;49686;51.880;5.632;2022-11-11T14:00:58;10.60;99.90
63537;DHT22;49686;51.880;5.632;2022-11-11T14:03:31;10.60;99.90
63537;DHT22;49686;51.880;5.632;2022-11-11T14:09:04;10.50;99.90
63537;DHT22;49686;51.880;5.632;2022-11-11T14:11:33;10.40;99.90
63537;DHT22;49686;51.880;5.632;2022-11-11T14:17:12;10.30;99.90
63537;DHT22;49686;51.880;5.632;2022-11-11T14:19:40;10.40;99.90
63537;DHT22;49686;51.880;5.632;2022-11-11T14:22:28;10.20;99.90
63537;DHT22;49686;51.880;5.632;2022-11-11T14:25:09;10.20;99.90
63537;DHT22;49686;51.880;5.632;2022-11-11T14:27:43;10.10;99.90
63537;DHT22;49686;51.880;5.632;2022-11-11T14:30:12;10.00;99.90
63537;DHT22;49686;51.880;5.632;2022-11-11T14:32:54;10.00;99.90
63537;DHT22;49686;51.880;5.632;2022-11-11T14:35:32;9.90;99.90
63537;DHT22;49686;51.880;5.632;2022-11-11T14:38:18;9.80;99.90
63537;DHT22;49686;51.880;5.632;2022-11-11T14:40:49;9.80;99.90
63537;DHT22;49686;51.880;5.632;2022-11-11T14:43:36;9.80;99.90
63537;DHT22;49686;51.880;5.632;2022-11-11T14:46:05;9.70;99.90
63537;DHT22;49686;51.880;5.632;2022-11-11T14:48:52;9.60;99.90
63537;DHT22;49686;51.880;5.632;2022-11-11T14:51:51;9.60;99.90
63537;DHT22;49686;51.880;5.632;2022-11-11T14:54:46;9.60;99.90
63537;DHT22;49686;51.880;5.632;2022-11-11T14:57:20;9.50;99.90
63537;DHT22;49686;51.880;5.632;2022-11-11T14:59:48;9.40;99.90
63537;DHT22;49686;51.880;5.632;2022-11-11T15:02:25;9.40;99.90
63537;DHT22;49686;51.880;5.632;2022-11-11T15:04:52;9.40;99.90
63537;DHT22;49686;51.880;5.632;2022-11-11T15:07:32;9.20;99.90
63537;DHT22;49686;51.880;5.632;2022-11-11T15:10:03;9.20;99.90
63537;DHT22;49686;51.880;5.632;2022-11-11T15:12:43;9.20;99.90
63537;DHT22;49686;51.880;5.632;2022-11-11T15:15:17;9.10;99.90
63537;DHT22;49686;51.880;5.632;2022-11-11T15:17:56;9.00;99.90
63537;DHT22;49686;51.880;5.632;2022-11-11T15:20:34;8.90;99.90
63537;DHT22;49686;51.880;5.632;2022-11-11T15:23:14;8.80;99.90
63537;DHT22;49686;51.880;5.632;2022-11-11T15:25:50;8.80;99.90
63537;DHT22;49686;51.880;5.632;2022-11-11T15:28:33;8.70;99.90
63537;DHT22;49686;51.880;5.632;2022-11-11T15:31:14;8.60;99.90
63537;DHT22;49686;51.880;5.632;2022-11-11T15:33:51;8.60;99.90
63537;DHT22;49686;51.880;5.632;2022-11-11T15:36:30;8.50;99.90
63537;DHT22;49686;51.880;5.632;2022-11-11T15:38:58;8.40;99.90
63537;DHT22;49686;51.880;5.632;2022-11-11T15:41:35;8.30;99.90
63537;DHT22;49686;51.880;5.632;2022-11-11T15:44:16;8.20;99.90
63537;DHT22;49686;51.880;5.632;2022-11-11T15:46:44;8.10;99.90
63537;DHT22;49686;51.880;5.632;2022-11-11T15:49:13;8.00;99.90
63537;DHT22;49686;51.880;5.632;2022-11-11T15:51:39;7.90;99.90
63537;DHT22;49686;51.880;5.632;2022-11-11T15:54:17;7.70;99.90
63537;DHT22;49686;51.880;5.632;2022-11-11T15:56:44;7.70;99.90
63537;DHT22;49686;51.880;5.632;2022-11-11T15:59:22;7.60;99.90
63537;DHT22;49686;51.880;5.632;2022-11-11T16:01:50;7.50;99.90
63537;DHT22;49686;51.880;5.632;2022-11-11T16:04:18;7.40;99.90
63537;DHT22;49686;51.880;5.632;2022-11-11T16:07:16;7.30;99.90
63537;DHT22;49686;51.880;5.632;2022-11-11T16:09:44;7.20;99.90
63537;DHT22;49686;51.880;5.632;2022-11-11T16:12:15;7.20;99.90